Time;durP1;ratioP1;P1;durP2;ratioP2;P2;SDS_P1;SDS_P2;PMS_P1;PMS_P2;Temp;Humidity;BMP_temperature;BMP_pressure;BME280_temperature;BME280_humidity;BME280_pressure;Samples;Min_cycle;Max_cycle;Signal;HPM_P1;HPM_P2
2022/08/03 00:01:03;;;;;;;0.00;0.00;;;22.50;99.90;;;;;;5028920;28;20203;-74
2022/08/03 00:03:31;;;;;;;0.00;0.00;;;22.50;99.90;;;;;;5025283;28;20207;-74
2022/08/03 00:05:58;;;;;;;0.00;0.00;;;22.50;99.90;;;;;;5027602;28;20760;-75
2022/08/03 00:08:25;;;;;;;0.00;0.00;;;22.50;99.90;;;;;;5025173;28;20215;-74
2022/08/03 00:10:52;;;;;;;0.00;0.00;;;22.50;99.90;;;;;;5027054;28;20200;-74
2022/08/03 00:13:19;;;;;;;0.00;0.00;;;22.50;99.90;;;;;;5024898;28;20227;-74
2022/08/03 00:15:48;;;;;;;0.00;0.00;;;22.50;99.90;;;;;;5023120;28;20211;-74
2022/08/03 00:18:15;;;;;;;0.00;0.00;;;22.50;99.90;;;;;;5022404;28;20221;-74
2022/08/03 00:20:42;;;;;;;0.00;0.00;;;22.40;99.90;;;;;;5025377;28;20203;-75
2022/08/03 00:23:09;;;;;;;0.00;0.00;;;22.40;99.90;;;;;;5025812;28;20656;-75
2022/08/03 00:25:37;;;;;;;0.00;0.00;;;22.50;99.90;;;;;;5027042;28;20228;-74
2022/08/03 00:28:05;;;;;;;0.00;0.00;;;22.40;99.90;;;;;;5029253;28;20299;-74
2022/08/03 00:30:33;;;;;;;0.00;0.00;;;22.40;99.90;;;;;;5024410;28;20365;-75
2022/08/03 00:33:02;;;;;;;0.00;0.00;;;22.40;99.90;;;;;;5028010;28;20215;-74
2022/08/03 00:35:29;;;;;;;0.00;0.00;;;22.40;99.90;;;;;;5027138;28;20717;-74
2022/08/03 00:37:56;;;;;;;0.00;0.00;;;22.40;99.90;;;;;;5045339;28;20223;-74
2022/08/03 00:40:24;;;;;;;0.00;0.00;;;22.40;99.90;;;;;;5026260;28;20262;-75
2022/08/03 00:42:53;;;;;;;0.00;0.00;;;22.30;99.90;;;;;;5025057;28;20555;-75
2022/08/03 00:45:21;;;;;;;0.00;0.00;;;22.40;99.90;;;;;;5025469;28;20207;-75
2022/08/03 00:47:49;;;;;;;0.00;0.00;;;22.40;99.90;;;;;;5023522;28;20223;-74
2022/08/03 00:50:22;;;;;;;0.00;0.00;;;22.30;99.90;;;;;;5041214;28;20204;-73
2022/08/03 00:52:49;;;;;;;0.00;0.00;;;22.30;99.90;;;;;;5019782;28;20213;-74
2022/08/03 00:55:17;;;;;;;0.00;0.00;;;22.30;99.90;;;;;;5046012;28;20206;-73
2022/08/03 00:57:44;;;;;;;0.00;0.00;;;22.30;99.90;;;;;;5038984;28;20220;-73
2022/08/03 01:00:14;;;;;;;0.00;0.00;;;22.30;99.90;;;;;;5029029;28;20195;-75
2022/08/03 01:02:41;;;;;;;0.00;0.00;;;22.20;99.90;;;;;;5023836;28;20200;-75
2022/08/03 01:05:09;;;;;;;0.00;0.00;;;22.20;99.90;;;;;;5025627;28;20199;-74
2022/08/03 01:07:56;;;;;;;0.00;0.00;;;22.20;99.90;;;;;;5023953;28;20245;-73
2022/08/03 01:10:32;;;;;;;0.00;0.00;;;22.20;99.90;;;;;;5027734;28;20231;-73
2022/08/03 01:13:03;;;;;;;0.00;0.00;;;22.10;99.90;;;;;;5025982;28;20293;-73
2022/08/03 01:15:38;;;;;;;0.00;0.00;;;22.10;99.90;;;;;;5028799;28;20295;-73
2022/08/03 01:18:12;;;;;;;0.00;0.00;;;22.10;99.90;;;;;;5027559;28;20322;-74
2022/08/03 01:20:43;;;;;;;0.00;0.00;;;22.00;99.90;;;;;;5031110;28;20196;-73
2022/08/03 01:23:46;;;;;;;0.00;0.00;;;22.00;99.90;;;;;;5028292;28;20203;-73
2022/08/03 01:26:33;;;;;;;0.00;0.00;;;21.90;99.90;;;;;;5030514;28;20265;-74
2022/08/03 01:29:14;;;;;;;0.00;0.00;;;21.90;99.90;;;;;;5030267;28;20230;-74
2022/08/03 01:31:47;;;;;;;0.00;0.00;;;21.90;99.90;;;;;;5023554;28;20211;-74
2022/08/03 01:34:16;;;;;;;0.00;0.00;;;21.80;99.90;;;;;;5030835;28;20247;-75
2022/08/03 01:36:51;;;;;;;0.00;0.00;;;21.80;99.90;;;;;;5031924;28;20284;-75
2022/08/03 01:39:19;;;;;;;0.00;0.00;;;21.70;99.90;;;;;;5025095;28;20204;-75
2022/08/03 01:41:50;;;;;;;0.00;0.00;;;21.80;99.90;;;;;;5030556;28;20214;-74
2022/08/03 01:44:18;;;;;;;0.00;0.00;;;21.70;99.90;;;;;;5026553;28;20192;-75
2022/08/03 01:46:50;;;;;;;0.00;0.00;;;21.70;99.90;;;;;;5027724;28;20286;-74
2022/08/03 01:49:18;;;;;;;0.00;0.00;;;21.70;99.90;;;;;;5031606;28;20211;-74
2022/08/03 01:51:48;;;;;;;0.00;0.00;;;21.80;99.90;;;;;;5031714;28;20196;-74
2022/08/03 01:54:17;;;;;;;0.00;0.00;;;21.80;99.90;;;;;;5027701;28;20216;-74
2022/08/03 01:56:45;;;;;;;0.00;0.00;;;21.80;99.90;;;;;;5031275;28;20223;-75
2022/08/03 01:59:16;;;;;;;0.00;0.00;;;21.80;99.90;;;;;;5027065;28;20200;-74
2022/08/03 02:01:44;;;;;;;0.00;0.00;;;21.80;99.90;;;;;;5027698;28;20270;-75
2022/08/03 02:04:14;;;;;;;0.00;0.00;;;21.80;99.90;;;;;;5048483;22;20198;-71
2022/08/03 02:06:42;;;;;;;0.00;0.00;;;21.80;99.90;;;;;;5061997;28;20195;-71
2022/08/03 02:09:09;;;;;;;0.00;0.00;;;21.80;99.90;;;;;;5066194;28;20198;-72
2022/08/03 02:11:37;;;;;;;0.00;0.00;;;21.80;99.90;;;;;;5068699;28;20579;-72
2022/08/03 02:14:06;;;;;;;0.00;0.00;;;21.80;99.90;;;;;;5071414;28;20214;-73
2022/08/03 02:16:36;;;;;;;0.00;0.00;;;21.80;99.90;;;;;;5069326;28;20206;-72
2022/08/03 02:19:06;;;;;;;0.00;0.00;;;21.80;99.90;;;;;;5070057;28;20228;-72
2022/08/03 02:21:37;;;;;;;0.00;0.00;;;21.80;99.90;;;;;;5067526;28;20214;-72
2022/08/03 02:24:05;;;;;;;0.00;0.00;;;21.80;99.90;;;;;;5065767;28;20198;-72
2022/08/03 02:26:33;;;;;;;0.00;0.00;;;21.80;99.90;;;;;;5067069;28;20213;-73
2022/08/03 02:29:05;;;;;;;0.00;0.00;;;21.80;99.90;;;;;;5069974;28;20227;-72
2022/08/03 02:31:36;;;;;;;0.00;0.00;;;21.80;99.90;;;;;;5067357;28;20870;-72
2022/08/03 02:34:11;;;;;;;0.00;0.00;;;21.80;99.90;;;;;;5063492;28;20251;-72
2022/08/03 02:36:42;;;;;;;0.00;0.00;;;21.70;99.90;;;;;;5065756;28;20293;-72
2022/08/03 02:39:11;;;;;;;0.00;0.00;;;21.70;99.90;;;;;;5074270;28;20203;-72
2022/08/03 02:41:47;;;;;;;0.00;0.00;;;21.70;99.90;;;;;;5063716;28;20289;-72
2022/08/03 02:44:18;;;;;;;0.00;0.00;;;21.60;99.90;;;;;;5066736;28;20267;-71
2022/08/03 02:46:48;;;;;;;0.00;0.00;;;21.60;99.90;;;;;;5069381;28;20198;-71
2022/08/03 02:49:17;;;;;;;0.00;0.00;;;21.50;99.90;;;;;;5065575;28;20207;-72
2022/08/03 02:51:48;;;;;;;0.00;0.00;;;21.50;99.90;;;;;;5069992;28;20197;-71
2022/08/03 02:54:18;;;;;;;0.00;0.00;;;21.50;99.90;;;;;;5067113;28;20218;-71
2022/08/03 02:56:47;;;;;;;0.00;0.00;;;21.40;99.90;;;;;;5069780;28;20199;-73
2022/08/03 02:59:15;;;;;;;0.00;0.00;;;21.30;99.90;;;;;;5068792;28;20262;-71
2022/08/03 03:01:44;;;;;;;0.00;0.00;;;21.20;99.90;;;;;;5066060;28;20224;-71
2022/08/03 03:04:11;;;;;;;0.00;0.00;;;21.20;99.90;;;;;;5071087;28;20270;-72
2022/08/03 03:06:40;;;;;;;0.00;0.00;;;21.20;99.90;;;;;;5065963;28;20283;-72
2022/08/03 03:09:09;;;;;;;0.00;0.00;;;21.10;99.90;;;;;;5069591;28;20198;-72
2022/08/03 03:11:39;;;;;;;0.00;0.00;;;21.00;99.90;;;;;;5067221;28;20245;-71
2022/08/03 03:14:07;;;;;;;0.00;0.00;;;20.90;99.90;;;;;;5069509;28;20285;-72
2022/08/03 03:16:36;;;;;;;0.00;0.00;;;20.90;99.90;;;;;;5065321;28;20264;-72
2022/08/03 03:19:03;;;;;;;0.00;0.00;;;20.80;99.90;;;;;;5068811;28;20240;-72
2022/08/03 03:21:31;;;;;;;0.00;0.00;;;20.80;99.90;;;;;;5066025;28;20206;-72
2022/08/03 03:24:00;;;;;;;0.00;0.00;;;20.70;99.90;;;;;;5065491;28;20575;-72
2022/08/03 03:26:29;;;;;;;0.00;0.00;;;20.70;99.90;;;;;;5066831;28;20252;-72
2022/08/03 03:28:55;;;;;;;0.00;0.00;;;20.70;99.90;;;;;;5065336;28;20289;-72
2022/08/03 03:31:23;;;;;;;0.00;0.00;;;20.70;99.90;;;;;;5063701;28;20203;-71
2022/08/03 03:33:50;;;;;;;0.00;0.00;;;20.70;99.90;;;;;;5065592;28;20210;-71
2022/08/03 03:36:18;;;;;;;0.00;0.00;;;20.70;99.90;;;;;;5067163;28;20206;-71
2022/08/03 03:38:45;;;;;;;0.00;0.00;;;20.70;99.90;;;;;;5065861;28;20202;-72
2022/08/03 03:41:12;;;;;;;0.00;0.00;;;20.70;99.90;;;;;;5067109;28;20195;-72
2022/08/03 03:43:41;;;;;;;0.00;0.00;;;20.70;99.90;;;;;;5064529;28;20194;-71
2022/08/03 03:46:08;;;;;;;0.00;0.00;;;20.60;99.90;;;;;;5066333;28;20658;-72
2022/08/03 03:48:35;;;;;;;0.00;0.00;;;20.60;99.90;;;;;;5063980;28;20202;-71
2022/08/03 03:51:03;;;;;;;0.00;0.00;;;20.60;99.90;;;;;;5064135;28;20305;-71
2022/08/03 03:53:30;;;;;;;0.00;0.00;;;20.60;99.90;;;;;;5064765;28;20655;-71
2022/08/03 03:55:57;;;;;;;0.00;0.00;;;20.60;99.90;;;;;;5065270;28;20301;-72
2022/08/03 03:58:24;;;;;;;0.00;0.00;;;20.60;99.90;;;;;;5066593;28;20198;-72
2022/08/03 04:00:53;;;;;;;0.00;0.00;;;20.60;99.90;;;;;;5071917;28;20563;-71
2022/08/03 04:03:20;;;;;;;0.00;0.00;;;20.60;99.90;;;;;;5065579;28;20294;-74
2022/08/03 04:11:20;;;;;;;0.00;0.00;;;20.70;99.90;;;;;;5065209;28;20198;-73
2022/08/03 04:13:51;;;;;;;0.00;0.00;;;20.80;99.90;;;;;;5065242;28;20211;-72
2022/08/03 04:16:23;;;;;;;0.00;0.00;;;20.90;99.90;;;;;;5064706;28;20209;-72
2022/08/03 04:18:55;;;;;;;0.00;0.00;;;20.90;99.90;;;;;;5062985;28;20701;-72
2022/08/03 04:21:23;;;;;;;0.00;0.00;;;21.00;99.90;;;;;;5062564;28;20668;-73
2022/08/03 04:23:54;;;;;;;0.00;0.00;;;21.20;99.90;;;;;;5064367;28;20205;-72
2022/08/03 04:26:24;;;;;;;0.00;0.00;;;21.30;99.90;;;;;;5066490;28;20202;-72
2022/08/03 04:28:53;;;;;;;0.00;0.00;;;21.40;99.90;;;;;;5070423;28;20194;-72
2022/08/03 04:31:23;;;;;;;0.00;0.00;;;21.50;99.90;;;;;;5068098;28;20207;-73
2022/08/03 04:33:53;;;;;;;0.00;0.00;;;21.60;99.90;;;;;;5062116;28;20222;-73
2022/08/03 04:36:22;;;;;;;0.00;0.00;;;21.70;99.90;;;;;;5064934;28;20226;-73
2022/08/03 04:39:03;;;;;;;0.00;0.00;;;21.80;99.90;;;;;;5067862;28;20265;-73
2022/08/03 04:41:31;;;;;;;0.00;0.00;;;21.90;99.90;;;;;;5081277;28;20210;-74
2022/08/03 04:44:00;;;;;;;0.00;0.00;;;22.00;99.90;;;;;;5069613;28;20190;-73
2022/08/03 04:46:34;;;;;;;0.00;0.00;;;22.10;99.90;;;;;;5065080;28;20217;-74
2022/08/03 04:49:03;;;;;;;0.00;0.00;;;22.20;99.90;;;;;;5065379;28;20248;-74
2022/08/03 04:51:33;;;;;;;0.00;0.00;;;22.30;99.90;;;;;;5068096;28;20214;-73
2022/08/03 04:54:00;;;;;;;0.00;0.00;;;22.40;99.90;;;;;;5066534;28;20230;-73
2022/08/03 04:56:28;;;;;;;0.00;0.00;;;22.50;99.90;;;;;;5067821;28;20202;-73
2022/08/03 04:58:55;;;;;;;0.00;0.00;;;22.60;99.90;;;;;;5065256;28;20599;-72
2022/08/03 05:01:22;;;;;;;0.00;0.00;;;22.70;99.90;;;;;;5070856;28;20204;-73
2022/08/03 05:03:50;;;;;;;0.00;0.00;;;22.80;99.90;;;;;;5063264;28;20220;-73
2022/08/03 05:06:17;;;;;;;0.00;0.00;;;22.90;99.90;;;;;;5062104;28;20202;-74
2022/08/03 05:08:44;;;;;;;0.00;0.00;;;23.00;99.90;;;;;;5068240;28;20199;-73
2022/08/03 05:11:11;;;;;;;0.00;0.00;;;23.10;99.90;;;;;;5062455;28;20281;-73
2022/08/03 05:13:38;;;;;;;0.00;0.00;;;23.20;99.90;;;;;;5063714;28;20195;-73
2022/08/03 05:16:05;;;;;;;0.00;0.00;;;23.30;99.90;;;;;;5057412;28;20234;-73
2022/08/03 05:18:32;;;;;;;0.00;0.00;;;23.40;99.90;;;;;;5077122;28;20210;-74
2022/08/03 05:21:00;;;;;;;0.00;0.00;;;23.50;99.90;;;;;;5066325;28;20699;-74
2022/08/03 05:23:27;;;;;;;0.00;0.00;;;23.60;99.90;;;;;;5066689;28;20284;-73
2022/08/03 05:25:54;;;;;;;0.00;0.00;;;23.70;99.90;;;;;;5063466;28;20235;-80
2022/08/03 05:28:22;;;;;;;0.00;0.00;;;23.90;99.90;;;;;;5068601;28;20214;-74
2022/08/03 05:30:49;;;;;;;0.00;0.00;;;24.00;99.90;;;;;;5057137;28;20191;-73
2022/08/03 05:33:16;;;;;;;0.00;0.00;;;24.20;99.90;;;;;;5060543;28;20253;-73
2022/08/03 05:35:42;;;;;;;0.00;0.00;;;24.30;99.90;;;;;;5065517;28;20225;-73
2022/08/03 05:38:11;;;;;;;0.00;0.00;;;24.50;99.90;;;;;;5062729;28;20202;-73
2022/08/03 05:40:38;;;;;;;0.00;0.00;;;24.60;99.90;;;;;;5057595;28;20667;-73
2022/08/03 05:43:05;;;;;;;0.00;0.00;;;24.70;99.90;;;;;;5063003;28;20201;-73
2022/08/03 05:45:32;;;;;;;0.00;0.00;;;24.80;99.90;;;;;;5064373;28;20225;-73
2022/08/03 05:47:59;;;;;;;0.00;0.00;;;24.90;99.90;;;;;;5067050;28;20199;-73
2022/08/03 05:50:26;;;;;;;0.00;0.00;;;25.10;99.90;;;;;;5065233;28;20194;-73
2022/08/03 05:52:56;;;;;;;0.00;0.00;;;25.20;99.90;;;;;;5063101;28;20207;-73
2022/08/03 05:55:25;;;;;;;0.00;0.00;;;25.30;99.90;;;;;;5064634;28;20219;-75
2022/08/03 05:57:52;;;;;;;0.00;0.00;;;25.50;99.90;;;;;;5069503;28;20203;-74
2022/08/03 06:00:19;;;;;;;0.00;0.00;;;25.60;99.90;;;;;;5069337;28;20742;-73
2022/08/03 06:02:46;;;;;;;0.00;0.00;;;25.80;99.90;;;;;;5061525;28;20289;-76
2022/08/03 06:05:13;;;;;;;0.00;0.00;;;25.90;99.90;;;;;;5066132;28;20305;-74
2022/08/03 06:07:41;;;;;;;0.00;0.00;;;26.00;99.90;;;;;;5067162;28;20213;-75
2022/08/03 06:10:08;;;;;;;0.00;0.00;;;26.10;99.90;;;;;;5071369;28;20277;-74
2022/08/03 06:12:39;;;;;;;0.00;0.00;;;26.30;99.90;;;;;;5068183;28;20207;-73
2022/08/03 06:15:07;;;;;;;0.00;0.00;;;26.50;99.90;;;;;;5066745;28;20683;-73
2022/08/03 06:17:34;;;;;;;0.00;0.00;;;26.70;99.90;;;;;;5068665;28;20256;-75
2022/08/03 06:20:01;;;;;;;0.00;0.00;;;26.80;99.90;;;;;;5071385;28;20211;-74
2022/08/03 06:22:28;;;;;;;0.00;0.00;;;26.80;99.90;;;;;;5067284;28;20567;-74
2022/08/03 06:24:57;;;;;;;0.00;0.00;;;26.90;99.90;;;;;;5069836;28;20222;-73
2022/08/03 06:27:25;;;;;;;0.00;0.00;;;;;;;;;;5068388;28;20248;-75
2022/08/03 06:29:54;;;;;;;0.00;0.00;;;;;;;;;;5065685;28;20671;-73
2022/08/03 06:32:22;;;;;;;0.00;0.00;;;;;;;;;;5064613;28;20213;-73
2022/08/03 06:34:52;;;;;;;0.00;0.00;;;;;;;;;;5066238;28;20259;-73
2022/08/03 06:37:19;;;;;;;0.00;0.00;;;27.80;99.90;;;;;;5063790;28;20202;-74
2022/08/03 06:39:47;;;;;;;0.00;0.00;;;27.90;99.90;;;;;;5063564;28;20213;-73
2022/08/03 06:42:14;;;;;;;0.00;0.00;;;28.10;99.90;;;;;;5080815;28;20232;-73
2022/08/03 06:44:41;;;;;;;0.00;0.00;;;28.30;99.90;;;;;;5069430;28;20246;-73
2022/08/03 06:47:09;;;;;;;0.00;0.00;;;28.70;99.90;;;;;;5071208;28;20255;-74
2022/08/03 06:49:37;;;;;;;0.00;0.00;;;28.70;99.90;;;;;;5066588;28;20289;-73
2022/08/03 06:52:04;;;;;;;0.00;0.00;;;28.90;99.90;;;;;;5067991;28;20202;-73
2022/08/03 06:54:31;;;;;;;0.00;0.00;;;29.10;99.90;;;;;;5066048;28;20245;-73
2022/08/03 06:56:58;;;;;;;0.00;0.00;;;29.20;99.90;;;;;;5069460;28;20194;-72
2022/08/03 06:59:25;;;;;;;0.00;0.00;;;29.40;99.90;;;;;;5069026;28;20206;-73
2022/08/03 07:01:53;;;;;;;0.00;0.00;;;;;;;;;;5069843;28;20190;-73
2022/08/03 07:04:22;;;;;;;0.00;0.00;;;29.50;99.90;;;;;;5068410;28;20287;-74
2022/08/03 07:06:49;;;;;;;0.00;0.00;;;29.60;99.90;;;;;;5074825;28;20194;-73
2022/08/03 07:09:16;;;;;;;0.00;0.00;;;;;;;;;;5065765;28;20186;-73
2022/08/03 07:11:44;;;;;;;0.00;0.00;;;;;;;;;;5067661;28;20207;-72
2022/08/03 07:14:11;;;;;;;0.00;0.00;;;;;;;;;;5064473;28;20223;-72
2022/08/03 07:16:39;;;;;;;0.00;0.00;;;;;;;;;;5066414;28;20206;-71
2022/08/03 07:19:07;;;;;;;0.00;0.00;;;;;;;;;;5069736;28;20203;-71
2022/08/03 07:21:35;;;;;;;0.00;0.00;;;30.50;99.90;;;;;;5066191;28;20968;-71
2022/08/03 07:24:03;;;;;;;0.00;0.00;;;30.60;99.90;;;;;;5065969;28;20191;-73
2022/08/03 07:26:30;;;;;;;0.00;0.00;;;30.70;99.90;;;;;;5066933;28;20205;-73
2022/08/03 07:28:59;;;;;;;0.00;0.00;;;30.80;99.90;;;;;;5067001;28;20255;-73
2022/08/03 07:31:26;;;;;;;0.00;0.00;;;31.00;99.90;;;;;;5065501;28;20210;-72
2022/08/03 07:33:53;;;;;;;0.00;0.00;;;31.10;99.90;;;;;;5066944;28;20255;-73
2022/08/03 07:36:21;;;;;;;0.00;0.00;;;31.10;99.90;;;;;;5063255;28;20789;-73
2022/08/03 07:38:49;;;;;;;0.00;0.00;;;31.10;99.90;;;;;;5061310;28;20635;-73
2022/08/03 07:41:16;;;;;;;0.00;0.00;;;31.20;99.90;;;;;;5063566;28;20276;-73
2022/08/03 07:43:43;;;;;;;0.00;0.00;;;31.30;99.90;;;;;;5063010;28;20210;-73
2022/08/03 07:46:10;;;;;;;0.00;0.00;;;31.40;99.90;;;;;;5062281;28;20214;-73
2022/08/03 07:48:38;;;;;;;0.00;0.00;;;;;;;;;;5076824;28;20214;-73
2022/08/03 07:51:05;;;;;;;0.00;0.00;;;;;;;;;;5064211;28;20271;-73
2022/08/03 07:53:33;;;;;;;0.00;0.00;;;;;;;;;;5060397;28;20206;-71
2022/08/03 07:56:01;;;;;;;0.00;0.00;;;32.10;99.90;;;;;;5061034;28;20214;-71
2022/08/03 07:58:28;;;;;;;0.00;0.00;;;32.10;99.90;;;;;;5065949;28;20210;-72
2022/08/03 08:00:55;;;;;;;0.00;0.00;;;32.30;99.90;;;;;;5063811;28;20206;-73
2022/08/03 08:03:22;;;;;;;0.00;0.00;;;32.50;99.90;;;;;;5064049;28;20257;-72
2022/08/03 08:05:50;;;;;;;0.00;0.00;;;32.50;99.90;;;;;;5062639;28;20242;-73
2022/08/03 08:08:17;;;;;;;0.00;0.00;;;32.60;99.90;;;;;;5076905;28;20747;-72
2022/08/03 08:10:44;;;;;;;0.00;0.00;;;32.60;99.90;;;;;;5058388;28;20203;-71
2022/08/03 08:13:12;;;;;;;0.00;0.00;;;32.70;99.90;;;;;;5053165;28;20213;-72
2022/08/03 08:15:40;;;;;;;0.00;0.00;;;;;;;;;;5058070;28;20226;-72
2022/08/03 08:18:08;;;;;;;0.00;0.00;;;;;;;;;;5058591;28;20204;-72
2022/08/03 08:20:37;;;;;;;0.00;0.00;;;;;;;;;;5062084;28;20273;-72
2022/08/03 08:23:06;;;;;;;0.00;0.00;;;;;;;;;;5062257;28;20253;-72
2022/08/03 08:25:34;;;;;;;0.00;0.00;;;;;;;;;;5060869;28;20222;-72
2022/08/03 08:28:03;;;;;;;0.00;0.00;;;;;;;;;;5065181;28;20208;-72
2022/08/03 08:30:32;;;;;;;0.00;0.00;;;;;;;;;;5065789;28;20205;-72
2022/08/03 08:33:00;;;;;;;0.00;0.00;;;;;;;;;;5062488;28;20285;-72
2022/08/03 08:35:27;;;;;;;0.00;0.00;;;;;;;;;;5064376;28;20707;-72
2022/08/03 08:37:55;;;;;;;0.00;0.00;;;;;;;;;;5061408;28;20203;-73
2022/08/03 08:40:23;;;;;;;0.00;0.00;;;;;;;;;;5065563;28;20217;-73
2022/08/03 08:42:50;;;;;;;0.00;0.00;;;;;;;;;;5061971;28;20195;-73
2022/08/03 08:45:18;;;;;;;0.00;0.00;;;;;;;;;;5062552;28;20214;-72
2022/08/03 08:47:47;;;;;;;0.00;0.00;;;;;;;;;;5070166;28;20210;-73
2022/08/03 08:50:16;;;;;;;0.00;0.00;;;;;;;;;;5053360;28;20207;-72
2022/08/03 08:52:44;;;;;;;0.00;0.00;;;;;;;;;;5067730;28;20217;-72
2022/08/03 08:55:15;;;;;;;0.00;0.00;;;;;;;;;;5057485;28;20227;-72
2022/08/03 08:57:45;;;;;;;0.00;0.00;;;;;;;;;;5064346;28;20207;-71
2022/08/03 09:00:14;;;;;;;0.00;0.00;;;;;;;;;;5058485;28;20243;-72
2022/08/03 09:02:42;;;;;;;0.00;0.00;;;;;;;;;;5063107;28;20244;-72
2022/08/03 09:05:12;;;;;;;0.00;0.00;;;;;;;;;;5059784;28;20223;-72
2022/08/03 09:07:40;;;;;;;0.00;0.00;;;;;;;;;;5060581;28;20190;-72
2022/08/03 09:10:08;;;;;;;0.00;0.00;;;;;;;;;;5066796;28;20205;-73
2022/08/03 09:12:38;;;;;;;0.00;0.00;;;;;;;;;;5062312;28;20199;-72
2022/08/03 09:15:16;;;;;;;0.00;0.00;;;;;;;;;;5063451;28;20230;-72
2022/08/03 09:17:44;;;;;;;0.00;0.00;;;;;;;;;;5059537;28;20201;-72
2022/08/03 09:20:13;;;;;;;0.00;0.00;;;;;;;;;;5074160;28;20235;-72
2022/08/03 09:22:53;;;;;;;0.00;0.00;;;;;;;;;;5062341;28;20211;-73
2022/08/03 09:25:20;;;;;;;0.00;0.00;;;;;;;;;;5061051;28;20243;-73
2022/08/03 09:27:47;;;;;;;0.00;0.00;;;;;;;;;;5059713;28;20261;-71
2022/08/03 09:30:15;;;;;;;0.00;0.00;;;;;;;;;;5058833;28;20231;-71
2022/08/03 09:32:43;;;;;;;0.00;0.00;;;;;;;;;;5061715;28;20204;-72
2022/08/03 09:35:13;;;;;;;0.00;0.00;;;;;;;;;;5062027;28;20244;-72
2022/08/03 09:37:40;;;;;;;0.00;0.00;;;;;;;;;;5066290;28;20216;-72
2022/08/03 09:40:08;;;;;;;0.00;0.00;;;;;;;;;;5056665;28;20229;-73
2022/08/03 09:42:37;;;;;;;0.00;0.00;;;;;;;;;;5059718;28;20204;-73
2022/08/03 09:45:05;;;;;;;0.00;0.00;;;;;;;;;;5062077;28;20217;-73
2022/08/03 09:47:35;;;;;;;0.00;0.00;;;;;;;;;;5067114;28;20205;-72
2022/08/03 09:50:03;;;;;;;0.00;0.00;;;;;;;;;;5065539;28;20212;-72
2022/08/03 09:52:32;;;;;;;0.00;0.00;;;;;;;;;;5068238;28;20209;-72
2022/08/03 09:55:01;;;;;;;0.00;0.00;;;;;;;;;;5066329;28;20307;-72
2022/08/03 09:57:30;;;;;;;0.00;0.00;;;;;;;;;;5069050;28;20202;-72
2022/08/03 10:00:09;;;;;;;0.00;0.00;;;;;;;;;;5066712;28;20212;-72
2022/08/03 10:02:39;;;;;;;0.00;0.00;;;;;;;;;;5066727;28;20202;-72
2022/08/03 10:05:08;;;;;;;0.00;0.00;;;;;;;;;;5065656;28;20315;-72
2022/08/03 10:07:44;;;;;;;0.00;0.00;;;;;;;;;;5067946;28;20200;-72
2022/08/03 10:10:12;;;;;;;0.00;0.00;;;;;;;;;;5066608;28;20209;-73
2022/08/03 10:12:40;;;;;;;0.00;0.00;;;;;;;;;;5072942;28;20281;-72
2022/08/03 10:15:09;;;;;;;0.00;0.00;;;;;;;;;;5070149;28;20617;-72
2022/08/03 10:17:36;;;;;;;0.00;0.00;;;;;;;;;;5064799;28;20269;-73
2022/08/03 10:20:05;;;;;;;0.00;0.00;;;;;;;;;;5068050;28;20199;-72
2022/08/03 10:22:33;;;;;;;0.00;0.00;;;;;;;;;;5083534;28;20199;-72
2022/08/03 10:25:04;;;;;;;0.00;0.00;;;;;;;;;;5071089;28;20298;-72
2022/08/03 10:27:32;;;;;;;0.00;0.00;;;;;;;;;;5066295;28;20221;-73
2022/08/03 10:30:03;;;;;;;0.00;0.00;;;;;;;;;;5070624;28;20205;-72
2022/08/03 10:32:31;;;;;;;0.00;0.00;;;;;;;;;;5066947;28;20301;-73
2022/08/03 10:35:03;;;;;;;0.00;0.00;;;;;;;;;;5065432;28;20225;-72
2022/08/03 10:37:32;;;;;;;0.00;0.00;;;;;;;;;;5063988;28;20202;-72
2022/08/03 10:40:01;;;;;;;0.00;0.00;;;;;;;;;;5069006;28;20205;-72
2022/08/03 10:42:31;;;;;;;0.00;0.00;;;;;;;;;;5064950;28;20230;-73
2022/08/03 10:45:03;;;;;;;0.00;0.00;;;;;;;;;;5067748;28;20246;-73
2022/08/03 10:47:31;;;;;;;0.00;0.00;;;;;;;;;;5066316;28;20222;-73
2022/08/03 10:49:59;;;;;;;0.00;0.00;;;;;;;;;;5069911;28;20205;-72
2022/08/03 10:52:27;;;;;;;0.00;0.00;;;;;;;;;;5067454;28;20313;-72
2022/08/03 10:57:52;;;;;;;0.00;0.00;;;;;;;;;;5063054;28;20232;-73
2022/08/03 11:00:20;;;;;;;0.00;0.00;;;;;;;;;;5073234;28;20310;-73
2022/08/03 11:03:05;;;;;;;0.00;0.00;;;;;;;;;;5075158;28;20199;-73
2022/08/03 11:05:33;;;;;;;0.00;0.00;;;;;;;;;;5066590;28;20248;-72
2022/08/03 11:08:23;;;;;;;0.00;0.00;;;;;;;;;;5069631;28;20204;-72
2022/08/03 11:10:52;;;;;;;0.00;0.00;;;;;;;;;;5066462;28;20202;-72
2022/08/03 11:13:22;;;;;;;0.00;0.00;;;35.40;99.90;;;;;;5066798;28;20261;-73
2022/08/03 11:15:52;;;;;;;0.00;0.00;;;35.40;99.90;;;;;;5066176;28;20239;-72
2022/08/03 11:18:20;;;;;;;0.00;0.00;;;35.50;99.90;;;;;;5066700;28;20207;-72
2022/08/03 11:20:49;;;;;;;0.00;0.00;;;35.60;99.90;;;;;;5066511;28;20201;-73
2022/08/03 11:23:18;;;;;;;0.00;0.00;;;35.70;99.90;;;;;;5068438;28;20196;-72
2022/08/03 11:26:11;;;;;;;0.00;0.00;;;35.60;99.90;;;;;;5062380;28;20251;-70
2022/08/03 11:28:41;;;;;;;0.00;0.00;;;35.70;99.90;;;;;;5062389;28;20233;-71
2022/08/03 11:31:47;;;;;;;0.00;0.00;;;35.60;99.90;;;;;;5066987;28;20229;-71
2022/08/03 11:34:16;;;;;;;0.00;0.00;;;35.30;99.90;;;;;;5056801;28;20239;-71
2022/08/03 11:37:20;;;;;;;0.00;0.00;;;35.60;99.80;;;;;;5062114;28;20195;-72
2022/08/03 11:39:50;;;;;;;0.00;0.00;;;35.60;99.90;;;;;;5060758;28;20195;-71
2022/08/03 11:42:39;;;;;;;0.00;0.00;;;35.60;99.90;;;;;;5062333;28;20295;-71
2022/08/03 11:45:09;;;;;;;0.00;0.00;;;35.60;99.90;;;;;;5059535;28;20232;-71
2022/08/03 11:47:39;;;;;;;0.00;0.00;;;35.70;99.90;;;;;;5068134;28;20227;-71
2022/08/03 11:50:07;;;;;;;0.00;0.00;;;35.70;99.90;;;;;;5057217;28;20200;-71
2022/08/03 11:52:44;;;;;;;0.00;0.00;;;35.70;99.90;;;;;;5067927;28;20240;-71
2022/08/03 11:55:13;;;;;;;0.00;0.00;;;35.70;99.50;;;;;;5065128;28;20216;-71
2022/08/03 11:57:40;;;;;;;0.00;0.00;;;35.70;99.60;;;;;;5067199;28;20201;-71
2022/08/03 12:00:23;;;;;;;0.00;0.00;;;35.70;99.90;;;;;;5067168;28;20233;-72
2022/08/03 12:03:02;;;;;;;0.00;0.00;;;35.70;99.90;;;;;;5068083;28;20214;-70
2022/08/03 12:05:38;;;;;;;0.00;0.00;;;35.70;99.90;;;;;;5063025;28;20313;-71
2022/08/03 12:08:06;;;;;;;0.00;0.00;;;35.70;99.90;;;;;;5063742;28;20220;-70
2022/08/03 12:10:33;;;;;;;0.00;0.00;;;35.70;99.90;;;;;;5066515;28;20609;-71
2022/08/03 12:13:01;;;;;;;0.00;0.00;;;35.80;99.80;;;;;;5065126;28;20209;-71
2022/08/03 12:15:32;;;;;;;0.00;0.00;;;35.70;99.90;;;;;;5066823;28;20222;-73
2022/08/03 12:18:01;;;;;;;0.00;0.00;;;35.60;99.90;;;;;;5063504;28;20224;-71
2022/08/03 12:20:30;;;;;;;0.00;0.00;;;35.50;99.90;;;;;;5060367;28;20251;-73
2022/08/03 12:23:03;;;;;;;0.00;0.00;;;35.30;99.90;;;;;;5066001;28;20207;-72
2022/08/03 12:25:30;;;;;;;0.00;0.00;;;35.20;99.90;;;;;;5064537;28;20229;-71
2022/08/03 12:28:08;;;;;;;0.00;0.00;;;35.30;99.90;;;;;;5068182;28;20223;-71
2022/08/03 12:30:38;;;;;;;0.00;0.00;;;35.30;99.90;;;;;;5065780;28;20223;-70
2022/08/03 12:33:21;;;;;;;0.00;0.00;;;35.30;99.90;;;;;;5064962;28;20650;-71
2022/08/03 12:35:50;;;;;;;0.00;0.00;;;35.30;99.50;;;;;;5062563;28;20222;-71
2022/08/03 12:38:22;;;;;;;0.00;0.00;;;35.20;99.90;;;;;;5065524;28;20193;-70
2022/08/03 12:41:00;;;;;;;0.00;0.00;;;35.20;99.90;;;;;;5064598;28;20207;-70
2022/08/03 12:43:28;;;;;;;0.00;0.00;;;35.20;99.90;;;;;;5058590;28;20296;-71
2022/08/03 12:46:11;;;;;;;0.00;0.00;;;35.10;99.90;;;;;;5068226;28;20212;-74
2022/08/03 12:49:04;;;;;;;0.00;0.00;;;35.00;99.90;;;;;;5062199;28;20210;-71
2022/08/03 12:51:33;;;;;;;0.00;0.00;;;34.80;99.90;;;;;;5063401;28;20231;-71
2022/08/03 12:54:01;;;;;;;0.00;0.00;;;34.60;99.80;;;;;;5063152;28;20202;-71
2022/08/03 12:56:28;;;;;;;0.00;0.00;;;34.60;99.90;;;;;;5064413;28;20206;-71
2022/08/03 12:58:55;;;;;;;0.00;0.00;;;34.60;99.90;;;;;;5066989;28;20209;-71
2022/08/03 13:01:26;;;;;;;0.00;0.00;;;34.50;99.50;;;;;;5068866;28;20197;-72
2022/08/03 13:03:54;;;;;;;0.00;0.00;;;34.40;99.40;;;;;;5063267;28;20210;-70
2022/08/03 13:06:22;;;;;;;0.00;0.00;;;34.40;99.40;;;;;;5062535;28;20262;-72
2022/08/03 13:08:50;;;;;;;0.00;0.00;;;34.30;99.60;;;;;;5066474;28;20201;-71
2022/08/03 13:11:19;;;;;;;0.00;0.00;;;34.30;99.50;;;;;;5061157;28;20303;-71
2022/08/03 13:13:46;;;;;;;0.00;0.00;;;34.30;99.90;;;;;;5059881;28;20200;-71
2022/08/03 13:16:13;;;;;;;0.00;0.00;;;34.40;99.90;;;;;;5063280;28;20221;-70
2022/08/03 13:18:41;;;;;;;0.00;0.00;;;34.40;99.90;;;;;;5064582;28;20276;-71
2022/08/03 13:21:08;;;;;;;0.00;0.00;;;34.60;99.90;;;;;;5056826;28;20628;-71
2022/08/03 13:23:35;;;;;;;0.00;0.00;;;34.60;99.90;;;;;;5063756;28;20283;-72
2022/08/03 13:26:02;;;;;;;0.00;0.00;;;34.70;99.90;;;;;;5062565;28;20220;-71
2022/08/03 13:28:29;;;;;;;0.00;0.00;;;34.70;99.60;;;;;;5062224;28;20224;-71
2022/08/03 13:30:56;;;;;;;0.00;0.00;;;34.80;99.90;;;;;;5051413;28;20217;-70
2022/08/03 13:33:23;;;;;;;0.00;0.00;;;34.80;99.90;;;;;;5065377;28;20228;-70